createdAt,value
2022-09-07T00:01:13.590Z,16.97
2022-09-07T00:03:41.763Z,16.91
2022-09-07T00:06:12.612Z,16.89
2022-09-07T00:08:43.784Z,16.90
2022-09-07T00:11:14.342Z,16.88
2022-09-07T00:13:44.034Z,16.94
2022-09-07T00:16:16.347Z,16.93
2022-09-07T00:18:46.269Z,17.00
2022-09-07T00:21:15.973Z,16.98
2022-09-07T00:23:46.243Z,16.95
2022-09-07T00:26:16.930Z,16.96
2022-09-07T00:28:45.631Z,16.99
2022-09-07T00:31:16.469Z,16.98
2022-09-07T00:33:45.304Z,16.98
2022-09-07T00:36:13.782Z,16.98
2022-09-07T00:38:41.955Z,16.92
2022-09-07T00:41:12.067Z,16.90
2022-09-07T00:43:42.990Z,16.97
2022-09-07T00:46:16.053Z,16.85
2022-09-07T00:48:51.109Z,16.90
2022-09-07T00:51:26.342Z,16.89
2022-09-07T00:53:58.450Z,16.86
2022-09-07T00:56:42.094Z,16.81
2022-09-07T00:59:12.434Z,16.82
2022-09-07T01:01:40.970Z,16.76
2022-09-07T01:04:10.376Z,16.72
2022-09-07T01:06:42.613Z,16.68
2022-09-07T01:09:13.277Z,16.70
2022-09-07T01:11:45.282Z,16.61
2022-09-07T01:14:16.609Z,16.62
2022-09-07T01:16:55.951Z,16.61
2022-09-07T01:19:52.320Z,16.52
2022-09-07T01:22:45.142Z,16.53
2022-09-07T01:25:16.071Z,16.48
2022-09-07T01:28:04.501Z,16.48
2022-09-07T01:30:36.487Z,16.43
2022-09-07T01:33:23.857Z,16.42
2022-09-07T01:36:00.179Z,16.41
2022-09-07T01:38:37.071Z,16.44
2022-09-07T01:41:10.667Z,16.39
2022-09-07T01:43:45.996Z,16.32
2022-09-07T01:46:20.018Z,16.27
2022-09-07T01:48:53.246Z,16.28
2022-09-07T01:51:25.069Z,16.32
2022-09-07T01:53:58.132Z,16.27
2022-09-07T01:56:32.098Z,16.26
2022-09-07T01:59:05.320Z,16.27
2022-09-07T02:01:40.981Z,16.23
2022-09-07T02:04:12.086Z,16.24
2022-09-07T02:06:46.726Z,16.22
2022-09-07T02:09:20.401Z,16.23
2022-09-07T02:11:50.649Z,16.19
2022-09-07T02:14:26.337Z,16.17
2022-09-07T02:17:00.084Z,16.17
2022-09-07T02:19:33.782Z,16.18
2022-09-07T02:22:07.062Z,16.17
2022-09-07T02:24:40.250Z,16.13
2022-09-07T02:27:13.446Z,16.21
2022-09-07T02:29:43.948Z,16.13
2022-09-07T02:32:12.275Z,16.17
2022-09-07T02:34:40.567Z,16.21
2022-09-07T02:37:11.153Z,16.21
2022-09-07T02:39:39.424Z,16.20
2022-09-07T02:42:08.409Z,16.21
2022-09-07T02:44:39.135Z,16.19
2022-09-07T02:47:17.628Z,16.17
2022-09-07T02:50:02.114Z,16.19
2022-09-07T02:52:41.578Z,16.16
2022-09-07T02:55:17.222Z,16.14
2022-09-07T02:57:53.111Z,16.15
2022-09-07T03:00:26.456Z,16.14
2022-09-07T03:03:09.436Z,16.15
2022-09-07T03:05:41.656Z,16.13
2022-09-07T03:08:13.811Z,16.14
2022-09-07T03:10:42.776Z,16.15
2022-09-07T03:13:21.537Z,16.15
2022-09-07T03:15:53.608Z,16.16
2022-09-07T03:18:25.677Z,16.16
2022-09-07T03:20:54.017Z,16.16
2022-09-07T03:23:22.579Z,16.15
2022-09-07T03:25:50.746Z,16.16
2022-09-07T03:28:19.154Z,16.16
2022-09-07T03:30:48.635Z,16.14
2022-09-07T03:33:17.913Z,16.09
2022-09-07T03:35:57.984Z,16.08
2022-09-07T03:38:26.179Z,16.04
2022-09-07T03:41:00.059Z,15.96
2022-09-07T03:43:28.769Z,15.94
2022-09-07T03:46:00.333Z,15.96
2022-09-07T03:48:28.735Z,15.94
2022-09-07T03:50:59.964Z,15.96
2022-09-07T03:53:28.561Z,15.93
2022-09-07T03:56:00.272Z,15.94
2022-09-07T03:58:31.154Z,15.94
2022-09-07T04:01:00.302Z,15.90
2022-09-07T04:03:28.688Z,15.89
2022-09-07T04:05:59.353Z,15.88
2022-09-07T04:08:28.041Z,15.86
2022-09-07T04:10:57.835Z,15.89
2022-09-07T04:13:26.375Z,15.87
2022-09-07T04:15:54.825Z,15.87
2022-09-07T04:18:23.583Z,15.88
2022-09-07T04:20:52.225Z,15.92
2022-09-07T04:23:22.169Z,16.01
2022-09-07T04:25:51.623Z,16.05
2022-09-07T04:28:21.715Z,16.09
2022-09-07T04:30:49.982Z,16.13
2022-09-07T04:33:18.746Z,16.22
2022-09-07T04:35:46.971Z,16.24
2022-09-07T04:38:16.632Z,16.27
2022-09-07T04:40:46.193Z,16.37
2022-09-07T04:43:14.470Z,16.90
2022-09-07T04:45:42.823Z,17.85
2022-09-07T04:48:11.044Z,18.26
2022-09-07T04:50:39.218Z,18.93
2022-09-07T04:53:07.441Z,19.57
2022-09-07T04:55:35.665Z,19.87
2022-09-07T04:58:05.281Z,20.68
2022-09-07T05:00:33.666Z,20.91
2022-09-07T05:03:01.838Z,21.18
2022-09-07T05:05:29.960Z,21.63
2022-09-07T05:07:58.090Z,22.34
2022-09-07T05:10:26.173Z,23.16
2022-09-07T05:12:54.282Z,23.40
2022-09-07T05:15:24.040Z,23.20
2022-09-07T05:17:53.061Z,24.05
2022-09-07T05:20:22.392Z,24.65
2022-09-07T05:22:50.574Z,24.39
2022-09-07T05:25:18.779Z,24.76
2022-09-07T05:27:46.976Z,24.73
2022-09-07T05:33:08.159Z,24.76
2022-09-07T05:35:36.396Z,23.78
2022-09-07T05:38:04.574Z,23.84
2022-09-07T05:40:39.873Z,24.72
2022-09-07T05:43:10.057Z,23.67
2022-09-07T05:45:38.304Z,22.81
2022-09-07T05:48:07.849Z,23.39
2022-09-07T05:50:36.511Z,23.37
2022-09-07T05:53:04.969Z,23.50
2022-09-07T05:55:33.332Z,24.48
2022-09-07T05:58:01.447Z,25.41
2022-09-07T06:00:29.728Z,25.67
2022-09-07T06:02:57.964Z,25.28
2022-09-07T06:05:27.686Z,25.47
2022-09-07T06:07:55.817Z,25.64
2022-09-07T06:13:12.112Z,26.69
2022-09-07T06:15:40.304Z,26.82
2022-09-07T06:18:08.376Z,25.91
2022-09-07T06:20:37.964Z,25.75
2022-09-07T06:23:07.449Z,24.68
2022-09-07T06:25:35.693Z,25.61
2022-09-07T06:28:04.282Z,25.82
2022-09-07T06:30:32.571Z,24.93
2022-09-07T06:33:00.773Z,25.04
2022-09-07T06:35:29.116Z,25.10
2022-09-07T06:37:58.863Z,24.91
2022-09-07T06:40:27.681Z,24.49
2022-09-07T06:42:55.884Z,24.39
2022-09-07T06:45:24.187Z,24.42
2022-09-07T06:47:54.955Z,24.36
2022-09-07T06:50:23.315Z,23.99
2022-09-07T06:55:47.592Z,23.95
2022-09-07T06:58:15.887Z,23.81
2022-09-07T07:00:44.174Z,23.47
2022-09-07T07:05:40.307Z,22.68
2022-09-07T07:08:08.452Z,22.98
2022-09-07T07:10:40.380Z,22.58
2022-09-07T07:13:09.934Z,22.67
2022-09-07T07:15:38.029Z,22.34
2022-09-07T07:18:20.227Z,22.49
2022-09-07T07:20:49.250Z,22.29
2022-09-07T07:23:17.425Z,22.33
2022-09-07T07:25:45.547Z,22.23
2022-09-07T07:31:09.789Z,22.77
2022-09-07T07:33:39.956Z,22.91
2022-09-07T07:36:13.578Z,22.92
2022-09-07T07:44:22.695Z,23.47
2022-09-07T07:46:51.650Z,23.49
2022-09-07T07:49:19.943Z,23.34
2022-09-07T07:54:37.281Z,23.16
2022-09-07T07:57:05.962Z,23.32
2022-09-07T07:59:36.216Z,23.40
2022-09-07T08:02:05.902Z,23.51
2022-09-07T08:04:34.740Z,23.57
2022-09-07T08:07:09.196Z,23.62
2022-09-07T08:09:38.449Z,23.23
2022-09-07T08:12:06.948Z,23.30
2022-09-07T08:14:41.128Z,23.43
2022-09-07T08:17:10.198Z,23.57
2022-09-07T08:19:38.521Z,23.86
2022-09-07T08:22:06.826Z,23.82
2022-09-07T08:24:35.045Z,23.80
2022-09-07T08:27:03.506Z,23.66
2022-09-07T08:29:34.468Z,23.96
2022-09-07T08:32:06.867Z,23.92
2022-09-07T08:34:37.465Z,24.21
2022-09-07T08:37:05.595Z,23.97
2022-09-07T08:39:33.916Z,23.96
2022-09-07T08:42:30.294Z,23.91
2022-09-07T08:45:04.118Z,24.22
2022-09-07T08:47:41.049Z,24.29
2022-09-07T08:50:13.758Z,24.14
2022-09-07T08:52:50.755Z,24.46
2022-09-07T08:55:28.130Z,24.51
2022-09-07T08:58:03.242Z,24.74
2022-09-07T09:00:32.449Z,24.71
2022-09-07T09:06:02.813Z,24.57
2022-09-07T09:08:46.263Z,24.80
2022-09-07T09:11:21.550Z,24.81
2022-09-07T09:13:59.931Z,24.59
2022-09-07T09:16:35.672Z,24.79
2022-09-07T09:19:16.739Z,25.11
2022-09-07T09:21:45.082Z,25.17
2022-09-07T09:24:19.282Z,25.25
2022-09-07T09:26:53.353Z,25.35
2022-09-07T09:29:23.851Z,25.25
2022-09-07T09:31:53.691Z,25.22
2022-09-07T09:34:25.298Z,25.43
2022-09-07T09:36:57.826Z,25.51
2022-09-07T09:39:28.106Z,25.37
2022-09-07T09:41:57.755Z,25.59
2022-09-07T09:44:32.916Z,25.63
2022-09-07T09:49:53.810Z,25.83
2022-09-07T09:52:29.934Z,26.08
2022-09-07T09:55:30.622Z,26.06
2022-09-07T10:01:21.174Z,25.79
2022-09-07T10:06:21.387Z,26.25
2022-09-07T10:08:57.927Z,26.40
2022-09-07T10:14:34.334Z,26.62
2022-09-07T10:17:11.922Z,26.71
2022-09-07T10:19:41.804Z,26.91
2022-09-07T10:22:26.151Z,27.27
2022-09-07T10:24:54.396Z,27.48
2022-09-07T10:27:33.903Z,27.65
2022-09-07T10:30:05.908Z,27.66
2022-09-07T10:32:52.884Z,27.55
2022-09-07T10:35:28.115Z,27.81
2022-09-07T10:38:10.001Z,27.64
2022-09-07T10:40:44.801Z,27.62
2022-09-07T10:43:22.082Z,27.50
2022-09-07T10:49:20.721Z,27.57
2022-09-07T10:52:01.367Z,27.81
2022-09-07T10:54:42.278Z,28.01
2022-09-07T10:57:33.800Z,27.32
2022-09-07T11:00:09.901Z,27.56
2022-09-07T11:03:28.815Z,27.63
2022-09-07T11:06:11.897Z,28.05
2022-09-07T11:09:17.534Z,27.98
2022-09-07T11:12:03.807Z,27.79
2022-09-07T11:14:38.127Z,27.80
2022-09-07T11:17:14.445Z,27.78
2022-09-07T11:19:48.318Z,27.85
2022-09-07T11:22:23.301Z,27.89
2022-09-07T11:27:48.836Z,28.05
2022-09-07T11:30:23.287Z,28.15
2022-09-07T11:32:58.965Z,28.39
2022-09-07T11:35:36.431Z,28.63
2022-09-07T11:38:25.650Z,28.57
2022-09-07T11:41:14.247Z,28.29
2022-09-07T11:43:47.476Z,28.53
2022-09-07T11:46:20.861Z,28.60
2022-09-07T11:48:53.900Z,28.65
2022-09-07T11:51:25.029Z,28.57
2022-09-07T11:54:00.956Z,28.82
2022-09-07T11:56:36.243Z,28.95
2022-09-07T11:59:37.624Z,29.11
2022-09-07T12:02:18.795Z,28.87
2022-09-07T12:05:11.331Z,29.01
2022-09-07T12:08:12.230Z,28.82
2022-09-07T12:11:05.736Z,28.61
2022-09-07T12:13:43.453Z,28.69
2022-09-07T12:16:20.629Z,28.72
2022-09-07T12:19:11.044Z,28.57
2022-09-07T12:21:43.530Z,28.34
2022-09-07T12:24:45.961Z,28.49
2022-09-07T12:27:28.630Z,28.50
2022-09-07T12:30:32.075Z,28.47
2022-09-07T12:33:19.858Z,28.48
2022-09-07T12:35:47.994Z,28.37
2022-09-07T12:38:55.648Z,28.39
2022-09-07T12:41:26.641Z,28.59
2022-09-07T12:44:08.497Z,28.48
2022-09-07T12:46:46.927Z,28.50
2022-09-07T12:49:54.910Z,28.32
2022-09-07T12:52:57.603Z,28.47
2022-09-07T12:56:17.967Z,28.42
2022-09-07T12:59:01.360Z,28.46
2022-09-07T13:01:37.875Z,28.41
2022-09-07T13:04:19.992Z,28.64
2022-09-07T13:07:07.211Z,28.66
2022-09-07T13:09:37.010Z,28.68
2022-09-07T13:15:34.808Z,28.58
2022-09-07T13:18:03.765Z,28.58
2022-09-07T13:20:39.172Z,28.73
2022-09-07T13:23:31.390Z,28.81
2022-09-07T13:26:01.571Z,28.72
2022-09-07T13:28:42.907Z,28.67
2022-09-07T13:31:36.957Z,28.66
2022-09-07T13:34:37.725Z,28.62
2022-09-07T13:37:07.857Z,28.68
2022-09-07T13:39:42.861Z,28.67
2022-09-07T13:42:18.528Z,28.78
2022-09-07T13:44:55.651Z,28.15
2022-09-07T13:47:46.521Z,28.00
2022-09-07T13:50:24.287Z,27.89
2022-09-07T13:53:18.296Z,27.95
2022-09-07T13:55:57.981Z,27.94
2022-09-07T13:58:31.166Z,27.77
2022-09-07T14:01:02.484Z,27.89
2022-09-07T14:03:38.036Z,28.02
2022-09-07T14:06:31.395Z,28.12
2022-09-07T14:09:01.727Z,28.18
2022-09-07T14:11:41.063Z,28.23
2022-09-07T14:14:13.123Z,28.12
2022-09-07T14:16:45.168Z,27.97
2022-09-07T14:19:18.566Z,28.00
2022-09-07T14:21:55.886Z,27.94
2022-09-07T14:24:32.311Z,27.97
2022-09-07T14:27:02.572Z,28.12
2022-09-07T14:29:34.166Z,28.06
2022-09-07T14:32:05.278Z,28.06
2022-09-07T14:34:37.741Z,28.10
2022-09-07T14:37:09.989Z,28.12
2022-09-07T14:39:42.505Z,28.03
2022-09-07T14:42:16.597Z,27.91
2022-09-07T14:44:45.670Z,27.63
2022-09-07T14:47:29.179Z,27.53
2022-09-07T14:49:59.925Z,27.50
2022-09-07T14:52:38.014Z,27.52
2022-09-07T14:55:27.791Z,27.50
2022-09-07T14:58:12.226Z,27.48
2022-09-07T15:00:41.939Z,27.49
2022-09-07T15:03:31.328Z,27.57
2022-09-07T15:06:06.476Z,27.58
2022-09-07T15:08:43.130Z,27.44
2022-09-07T15:14:12.021Z,27.21
2022-09-07T15:16:42.515Z,27.16
2022-09-07T15:19:32.076Z,27.14
2022-09-07T15:22:00.553Z,27.20
2022-09-07T15:24:29.023Z,27.21
2022-09-07T15:27:04.305Z,27.27
2022-09-07T15:29:34.068Z,27.28
2022-09-07T15:32:04.965Z,27.33
2022-09-07T15:34:35.942Z,27.40
2022-09-07T15:38:01.017Z,27.36
2022-09-07T15:39:53.149Z,27.17
2022-09-07T15:45:12.354Z,27.06
2022-09-07T15:47:47.474Z,27.02
2022-09-07T15:50:18.902Z,26.95
2022-09-07T15:52:47.035Z,26.85
2022-09-07T15:55:17.533Z,26.84
2022-09-07T15:57:52.738Z,26.86
2022-09-07T16:00:22.587Z,26.82
2022-09-07T16:03:07.836Z,26.77
2022-09-07T16:05:36.862Z,26.77
2022-09-07T16:10:54.410Z,26.75
2022-09-07T16:13:24.358Z,26.75
2022-09-07T16:15:54.481Z,26.70
2022-09-07T16:18:23.084Z,26.67
2022-09-07T16:20:54.207Z,26.68
2022-09-07T16:23:22.363Z,26.61
2022-09-07T16:25:57.845Z,26.48
2022-09-07T16:28:28.962Z,26.43
2022-09-07T16:30:58.846Z,26.35
2022-09-07T16:33:36.042Z,26.21
2022-09-07T16:36:07.594Z,26.09
2022-09-07T16:38:44.032Z,25.97
2022-09-07T16:41:14.568Z,25.88
2022-09-07T16:43:42.937Z,25.83
2022-09-07T16:46:14.982Z,25.73
2022-09-07T16:48:42.893Z,25.61
2022-09-07T16:51:14.405Z,25.45
2022-09-07T16:53:42.896Z,25.34
2022-09-07T16:56:12.991Z,25.23
2022-09-07T16:58:43.002Z,25.09
2022-09-07T17:01:14.550Z,24.96
2022-09-07T17:03:43.742Z,24.85
2022-09-07T17:06:14.941Z,24.68
2022-09-07T17:08:44.609Z,24.64
2022-09-07T17:11:15.939Z,24.51
2022-09-07T17:13:45.099Z,24.28
2022-09-07T17:16:16.833Z,24.16
2022-09-07T17:21:35.844Z,23.90
2022-09-07T17:24:06.298Z,23.81
2022-09-07T17:26:34.860Z,23.67
2022-09-07T17:29:04.058Z,23.57
2022-09-07T17:34:23.580Z,23.35
2022-09-07T17:36:51.800Z,23.16
2022-09-07T17:39:20.177Z,23.05
2022-09-07T17:41:48.692Z,23.02
2022-09-07T17:44:17.207Z,22.92
2022-09-07T17:46:46.630Z,22.83
2022-09-07T17:49:16.919Z,22.80
2022-09-07T17:51:46.227Z,22.73
2022-09-07T17:54:17.645Z,22.66
2022-09-07T17:56:46.788Z,22.56
2022-09-07T18:02:05.099Z,22.40
2022-09-07T18:04:36.170Z,22.37
2022-09-07T18:07:05.099Z,22.37
2022-09-07T18:09:33.463Z,22.28
2022-09-07T18:12:03.769Z,22.17
2022-09-07T18:14:32.363Z,22.14
2022-09-07T18:17:00.788Z,22.13
2022-09-07T18:19:30.638Z,22.07
2022-09-07T18:21:59.058Z,22.04
2022-09-07T18:24:28.232Z,22.03
2022-09-07T18:26:56.982Z,21.95
2022-09-07T18:29:30.158Z,21.93
2022-09-07T18:32:01.147Z,21.86
2022-09-07T18:34:31.933Z,21.80
2022-09-07T18:37:01.185Z,21.79
2022-09-07T18:39:29.951Z,21.70
2022-09-07T18:41:58.550Z,21.65
2022-09-07T18:47:22.358Z,21.49
2022-09-07T18:49:57.739Z,21.43
2022-09-07T18:55:15.271Z,21.38
2022-09-07T18:57:43.993Z,21.33
2022-09-07T19:00:14.483Z,21.26
2022-09-07T19:02:43.318Z,21.18
2022-09-07T19:08:04.486Z,21.02
2022-09-07T19:10:36.500Z,20.95
2022-09-07T19:13:05.329Z,20.95
2022-09-07T19:15:37.651Z,20.89
2022-09-07T19:18:08.320Z,20.84
2022-09-07T19:20:39.631Z,20.80
2022-09-07T19:23:09.402Z,20.78
2022-09-07T19:25:41.945Z,20.73
2022-09-07T19:28:10.742Z,20.68
2022-09-07T19:30:39.269Z,20.73
2022-09-07T19:33:10.307Z,20.71
2022-09-07T19:35:40.298Z,20.79
2022-09-07T19:38:08.808Z,20.79
2022-09-07T19:40:37.642Z,20.79
2022-09-07T19:43:06.385Z,20.82
2022-09-07T19:45:40.182Z,20.88
2022-09-07T19:48:09.009Z,20.91
2022-09-07T19:50:37.670Z,20.95
2022-09-07T19:53:07.815Z,20.96
2022-09-07T19:55:36.441Z,21.00
2022-09-07T19:58:04.987Z,21.02
2022-09-07T20:00:33.677Z,21.02
2022-09-07T20:03:02.380Z,21.02
2022-09-07T20:05:31.642Z,21.06
2022-09-07T20:07:59.783Z,21.05
2022-09-07T20:10:29.517Z,21.01
2022-09-07T20:12:58.772Z,20.99
2022-09-07T20:15:28.093Z,20.92
2022-09-07T20:17:57.147Z,20.83
2022-09-07T20:20:25.506Z,20.75
2022-09-07T20:22:54.109Z,20.73
2022-09-07T20:25:22.936Z,20.70
2022-09-07T20:27:52.700Z,20.68
2022-09-07T20:30:24.417Z,20.64
2022-09-07T20:32:52.544Z,20.59
2022-09-07T20:35:20.878Z,20.52
2022-09-07T20:37:49.760Z,20.50
2022-09-07T20:40:18.826Z,20.45
2022-09-07T20:42:47.539Z,20.33
2022-09-07T20:45:17.121Z,20.31
2022-09-07T20:47:45.642Z,20.21
2022-09-07T20:50:13.724Z,20.15
2022-09-07T20:52:41.762Z,20.16
2022-09-07T20:55:10.606Z,20.18
2022-09-07T20:57:39.028Z,20.18
2022-09-07T21:00:08.422Z,20.19
2022-09-07T21:02:37.892Z,20.08
2022-09-07T21:05:08.045Z,19.99
2022-09-07T21:07:36.427Z,19.90
2022-09-07T21:10:06.906Z,19.87
2022-09-07T21:12:35.346Z,19.76
2022-09-07T21:15:03.544Z,19.76
2022-09-07T21:17:31.755Z,19.71
2022-09-07T21:20:01.690Z,19.67
2022-09-07T21:22:30.417Z,19.63
2022-09-07T21:24:59.017Z,19.57
2022-09-07T21:27:27.802Z,19.49
2022-09-07T21:29:56.021Z,19.48
2022-09-07T21:32:24.123Z,19.43
2022-09-07T21:34:52.385Z,19.43
2022-09-07T21:37:22.334Z,19.46
2022-09-07T21:39:51.264Z,19.47
2022-09-07T21:42:19.987Z,19.72
2022-09-07T21:44:48.703Z,19.79
2022-09-07T21:47:17.130Z,19.87
2022-09-07T21:49:45.528Z,19.86
2022-09-07T21:52:13.806Z,19.79
2022-09-07T21:54:43.541Z,19.70
2022-09-07T21:57:11.878Z,19.50
2022-09-07T21:59:40.172Z,19.67
2022-09-07T22:02:08.757Z,19.58
2022-09-07T22:04:37.169Z,19.50
2022-09-07T22:07:05.345Z,19.47
2022-09-07T22:09:33.644Z,19.39
2022-09-07T22:12:03.558Z,19.37
2022-09-07T22:14:32.655Z,19.39
2022-09-07T22:17:01.507Z,19.43
2022-09-07T22:19:30.047Z,19.38
2022-09-07T22:21:58.417Z,19.39
2022-09-07T22:24:27.236Z,19.41
2022-09-07T22:26:55.964Z,19.48
2022-09-07T22:29:25.977Z,19.40
2022-09-07T22:31:54.115Z,19.37
2022-09-07T22:34:22.623Z,19.34
2022-09-07T22:36:51.046Z,19.31
2022-09-07T22:39:20.221Z,19.26
2022-09-07T22:41:48.940Z,19.17
2022-09-07T22:44:19.608Z,19.20
2022-09-07T22:46:49.510Z,19.18
2022-09-07T22:49:18.358Z,19.16
2022-09-07T22:51:49.554Z,19.09
2022-09-07T22:54:18.173Z,19.00
2022-09-07T22:56:46.302Z,18.92
2022-09-07T22:59:15.002Z,18.87
2022-09-07T23:01:43.725Z,18.83
2022-09-07T23:04:13.766Z,18.78
2022-09-07T23:06:43.633Z,18.72
2022-09-07T23:09:14.759Z,18.68
2022-09-07T23:11:43.956Z,18.64
2022-09-07T23:14:15.624Z,18.53
2022-09-07T23:16:44.277Z,18.39
2022-09-07T23:19:15.191Z,18.35
2022-09-07T23:21:43.954Z,18.27
2022-09-07T23:24:14.029Z,18.26
2022-09-07T23:26:42.872Z,18.25
2022-09-07T23:29:12.857Z,18.28
2022-09-07T23:31:41.479Z,18.27
2022-09-07T23:34:10.394Z,18.27
2022-09-07T23:36:40.052Z,18.30
2022-09-07T23:39:08.345Z,18.28
2022-09-07T23:41:36.645Z,18.30
2022-09-07T23:44:05.115Z,18.29
2022-09-07T23:46:33.345Z,18.29
2022-09-07T23:49:01.482Z,18.34
2022-09-07T23:51:29.822Z,18.42
2022-09-07T23:53:59.458Z,18.43
2022-09-07T23:56:27.677Z,18.38
2022-09-07T23:58:55.801Z,18.26
